Time;durP1;ratioP1;P1;durP2;ratioP2;P2;SDS_P1;SDS_P2;PMS_P1;PMS_P2;Temp;Humidity;BMP_temperature;BMP_pressure;BME280_temperature;BME280_humidity;BME280_pressure;Samples;Min_cycle;Max_cycle;Signal;HPM_P1;HPM_P2
2023/06/15 00:00:39;;;;;;;17.92;8.65;;;26.50;58.20;;;;;;7388153;19;20063;-77
2023/06/15 00:03:07;;;;;;;;;;;26.40;57.50;;;;;;7387851;19;20003;-77
2023/06/15 00:05:36;;;;;;;13.85;8.88;;;26.50;57.80;;;;;;7408099;19;20219;-77
2023/06/15 00:08:05;;;;;;;12.93;8.60;;;26.40;57.80;;;;;;7386590;19;20515;-77
2023/06/15 00:10:34;;;;;;;23.33;9.75;;;26.30;58.00;;;;;;7388323;19;20275;-77
2023/06/15 00:13:02;;;;;;;16.38;9.18;;;26.30;58.10;;;;;;7388900;19;20383;-77
2023/06/15 00:15:31;;;;;;;15.82;8.90;;;26.20;58.10;;;;;;7387132;19;20015;-77
2023/06/15 00:18:03;;;;;;;15.63;9.13;;;26.30;58.30;;;;;;7386693;19;20019;-77
2023/06/15 00:23:43;;;;;;;18.30;9.25;;;26.20;58.30;;;;;;7283250;19;2004603;-77
2023/06/15 00:26:11;;;;;;;15.20;9.35;;;26.20;58.40;;;;;;7409015;19;20352;-77
2023/06/15 00:28:40;;;;;;;15.80;8.68;;;26.10;58.60;;;;;;7385530;19;20007;-77
2023/06/15 00:31:09;;;;;;;15.25;9.77;;;26.00;58.70;;;;;;7384287;19;20015;-77
2023/06/15 00:33:40;;;;;;;14.88;8.73;;;26.00;58.70;;;;;;7384205;19;20011;-77
2023/06/15 00:36:12;;;;;;;12.50;9.20;;;25.90;58.70;;;;;;7385866;19;20007;-77
2023/06/15 00:38:40;;;;;;;18.52;9.90;;;25.90;58.80;;;;;;7392345;19;20066;-77
2023/06/15 00:41:09;;;;;;;16.33;8.85;;;25.90;58.90;;;;;;7407296;19;20010;-77
2023/06/15 00:43:38;;;;;;;16.38;9.27;;;25.80;59.00;;;;;;7385158;19;20007;-77
2023/06/15 00:46:07;;;;;;;13.30;8.90;;;25.80;59.10;;;;;;7404461;19;20018;-77
2023/06/15 00:48:36;;;;;;;14.40;9.65;;;25.80;59.20;;;;;;7392274;19;20002;-77
2023/06/15 00:51:08;;;;;;;15.15;8.68;;;25.70;59.30;;;;;;7385718;19;20003;-77
2023/06/15 00:53:38;;;;;;;15.00;9.93;;;25.60;59.50;;;;;;7408533;19;20007;-77
2023/06/15 00:56:08;;;;;;;17.38;9.55;;;25.60;59.40;;;;;;7385674;19;20020;-77
2023/06/15 00:58:38;;;;;;;15.65;9.32;;;25.60;59.60;;;;;;7386118;19;20233;-77
2023/06/15 01:01:06;;;;;;;19.20;9.38;;;25.60;59.70;;;;;;7386983;19;20019;-76
2023/06/15 01:03:35;;;;;;;12.68;9.48;;;25.50;59.90;;;;;;7388521;19;19998;-77
2023/06/15 01:06:16;;;;;;;15.15;9.77;;;25.40;59.90;;;;;;7383694;19;20381;-77
2023/06/15 01:08:52;;;;;;;19.27;10.13;;;25.50;60.00;;;;;;7384843;19;20011;-75
2023/06/15 01:11:21;;;;;;;13.02;9.02;;;25.40;59.90;;;;;;7404990;19;20022;-78
2023/06/15 01:13:53;;;;;;;15.90;9.80;;;25.40;60.00;;;;;;7384102;19;20003;-78
2023/06/15 01:16:25;;;;;;;16.25;9.80;;;25.30;60.20;;;;;;7387018;19;20005;-78
2023/06/15 01:18:59;;;;;;;12.38;9.15;;;25.30;60.20;;;;;;7388077;19;20009;-77
2023/06/15 01:21:32;;;;;;;14.45;9.02;;;25.30;60.40;;;;;;7387949;19;20017;-77
2023/06/15 01:24:17;;;;;;;15.82;9.40;;;25.30;60.40;;;;;;7384512;19;20020;-77
2023/06/15 01:26:52;;;;;;;17.77;9.55;;;25.30;60.40;;;;;;7384053;19;20051;-75
2023/06/15 01:29:26;;;;;;;13.57;9.63;;;25.30;60.40;;;;;;7404271;19;20027;-77
2023/06/15 01:31:57;;;;;;;13.85;9.35;;;25.30;60.60;;;;;;7382357;19;20002;-77
2023/06/15 01:34:25;;;;;;;14.20;9.13;;;25.30;60.70;;;;;;7383311;19;20011;-75
2023/06/15 01:36:54;;;;;;;13.10;9.25;;;25.30;60.80;;;;;;7384005;19;20015;-76
2023/06/15 01:39:23;;;;;;;15.35;10.25;;;25.30;60.90;;;;;;7385254;19;20030;-76
2023/06/15 01:41:57;;;;;;;13.38;9.30;;;25.20;60.90;;;;;;7385265;19;20035;-76
2023/06/15 01:44:29;;;;;;;15.80;9.70;;;25.10;61.20;;;;;;7406721;19;20010;-76
2023/06/15 01:46:57;;;;;;;11.80;8.75;;;25.10;61.30;;;;;;7383435;19;19999;-76
2023/06/15 01:49:27;;;;;;;18.02;10.38;;;25.10;61.30;;;;;;7383347;19;20011;-76
2023/06/15 01:51:55;;;;;;;16.60;9.70;;;25.10;61.30;;;;;;7383165;19;20082;-76
2023/06/15 01:54:24;;;;;;;13.77;9.60;;;25.20;61.30;;;;;;7382180;19;20007;-76
2023/06/15 01:56:56;;;;;;;14.40;9.10;;;25.20;61.10;;;;;;7383497;19;20029;-76
2023/06/15 01:59:24;;;;;;;12.32;9.20;;;25.20;61.20;;;;;;7403594;19;20011;-76
2023/06/15 02:01:53;;;;;;;14.85;9.50;;;25.20;61.30;;;;;;7382679;19;20003;-76
2023/06/15 02:04:22;;;;;;;16.63;10.00;;;25.20;61.50;;;;;;7383125;19;20006;-76
2023/06/15 02:06:51;;;;;;;17.90;10.13;;;25.10;61.30;;;;;;7383934;19;20341;-76
2023/06/15 02:09:20;;;;;;;17.60;10.20;;;25.10;61.40;;;;;;7384837;19;20006;-76
2023/06/15 02:11:48;;;;;;;16.45;9.30;;;25.10;61.40;;;;;;7382806;19;20030;-76
2023/06/15 02:14:20;;;;;;;15.73;9.45;;;25.10;61.60;;;;;;7404462;19;20003;-76
2023/06/15 02:16:49;;;;;;;18.50;10.68;;;24.90;61.80;;;;;;7381742;19;20010;-76
2023/06/15 02:19:20;;;;;;;14.05;10.43;;;24.90;62.00;;;;;;7381339;19;20263;-76
2023/06/15 02:21:49;;;;;;;;;;;24.90;62.10;;;;;;7384272;19;20016;-76
2023/06/15 02:24:18;;;;;;;15.02;10.20;;;24.90;62.10;;;;;;7384833;19;19919;-76
2023/06/15 02:26:48;;;;;;;15.73;9.95;;;24.90;62.20;;;;;;7383706;19;20015;-76
2023/06/15 02:29:20;;;;;;;19.35;9.18;;;24.80;62.30;;;;;;7403822;19;20003;-76
2023/06/15 02:31:48;;;;;;;14.98;9.40;;;24.80;62.30;;;;;;7380542;19;20003;-76
2023/06/15 02:34:17;;;;;;;23.00;10.95;;;24.80;62.30;;;;;;7381592;19;20020;-76
2023/06/15 02:36:46;;;;;;;16.80;10.23;;;24.80;62.60;;;;;;7381352;19;20074;-76
2023/06/15 02:39:16;;;;;;;13.73;9.85;;;24.80;62.60;;;;;;7381577;19;20016;-76
2023/06/15 02:41:45;;;;;;;15.60;9.75;;;24.70;62.60;;;;;;7381422;19;20015;-76
2023/06/15 02:44:14;;;;;;;20.55;10.45;;;24.70;62.70;;;;;;7402805;19;20031;-76
2023/06/15 02:46:46;;;;;;;15.68;10.18;;;24.70;62.90;;;;;;7380863;19;20232;-76
2023/06/15 02:49:18;;;;;;;15.48;10.05;;;24.70;62.90;;;;;;7380836;19;20011;-76
2023/06/15 02:51:46;;;;;;;18.50;10.05;;;24.70;62.80;;;;;;7397789;19;20011;-76
2023/06/15 02:54:16;;;;;;;18.58;10.75;;;24.60;62.70;;;;;;7392213;19;20010;-76
2023/06/15 02:56:45;;;;;;;15.75;9.73;;;24.60;62.90;;;;;;7381049;19;20071;-75
2023/06/15 02:59:15;;;;;;;16.80;11.27;;;24.60;63.00;;;;;;7403703;19;19999;-76
2023/06/15 03:01:49;;;;;;;13.27;9.93;;;24.60;63.00;;;;;;7381003;19;20010;-76
2023/06/15 03:04:21;;;;;;;17.30;10.18;;;24.60;62.90;;;;;;7381131;19;20239;-76
2023/06/15 03:06:50;;;;;;;19.30;10.18;;;24.50;63.10;;;;;;7381712;19;20003;-76
2023/06/15 03:09:19;;;;;;;13.93;9.57;;;24.40;63.30;;;;;;7380711;19;20017;-76
2023/06/15 03:11:50;;;;;;;20.73;10.32;;;24.40;63.60;;;;;;7381634;19;20019;-76
2023/06/15 03:14:20;;;;;;;14.88;9.77;;;24.30;63.70;;;;;;7404143;19;20096;-76
2023/06/15 03:16:54;;;;;;;15.15;9.88;;;24.30;64.10;;;;;;7381828;19;20087;-76
2023/06/15 03:19:23;;;;;;;19.15;10.13;;;24.20;64.10;;;;;;7381358;19;20058;-75
2023/06/15 03:21:52;;;;;;;17.55;10.43;;;24.10;64.20;;;;;;7379286;19;20074;-77
2023/06/15 03:24:21;;;;;;;15.55;10.50;;;24.10;64.40;;;;;;7380143;19;20009;-75
2023/06/15 03:26:50;;;;;;;15.60;9.50;;;24.10;64.30;;;;;;7380431;19;20073;-76
2023/06/15 03:29:19;;;;;;;20.85;10.82;;;24.10;64.40;;;;;;7402911;19;20087;-76
2023/06/15 03:31:50;;;;;;;20.27;11.10;;;24.10;64.70;;;;;;7380743;19;20070;-76
2023/06/15 03:34:21;;;;;;;15.70;10.65;;;24.10;64.90;;;;;;7383742;19;20023;-76
2023/06/15 03:36:52;;;;;;;;;;;24.10;64.90;;;;;;7380772;19;19999;-76
2023/06/15 03:39:22;;;;;;;17.13;9.90;;;24.10;64.90;;;;;;7379911;19;19934;-77
2023/06/15 03:41:51;;;;;;;15.27;10.05;;;24.10;64.60;;;;;;7378779;19;20375;-76
2023/06/15 03:44:20;;;;;;;15.02;10.40;;;24.10;64.70;;;;;;7399334;19;20035;-75
2023/06/15 03:46:48;;;;;;;21.45;10.60;;;24.00;64.80;;;;;;7378812;19;20296;-75
2023/06/15 03:49:22;;;;;;;17.42;10.50;;;24.00;65.00;;;;;;7379650;19;20007;-75
2023/06/15 03:51:51;;;;;;;15.85;10.57;;;24.00;65.20;;;;;;7379043;19;19999;-75
2023/06/15 03:54:19;;;;;;;15.27;10.73;;;23.90;65.20;;;;;;7379130;19;20023;-76
2023/06/15 03:56:48;;;;;;;20.23;10.60;;;23.90;65.30;;;;;;7380375;19;20019;-76
2023/06/15 03:59:19;;;;;;;17.27;10.95;;;23.90;65.50;;;;;;7398330;19;20071;-76
2023/06/15 04:01:47;;;;;;;18.48;10.10;;;23.90;65.30;;;;;;7378206;19;20031;-76
2023/06/15 04:04:17;;;;;;;24.50;10.52;;;23.90;65.40;;;;;;7379486;19;20366;-76
2023/06/15 04:06:52;;;;;;;24.08;11.40;;;23.90;65.50;;;;;;7378522;19;20086;-76
2023/06/15 04:09:21;;;;;;;16.98;11.00;;;23.80;65.80;;;;;;7385486;19;20006;-76
2023/06/15 04:11:50;;;;;;;19.75;10.73;;;23.80;65.80;;;;;;7385890;19;20015;-76
2023/06/15 04:14:19;;;;;;;18.65;11.05;;;23.90;65.80;;;;;;7404918;19;20060;-76
2023/06/15 04:16:51;;;;;;;18.42;11.30;;;23.90;65.60;;;;;;7385164;19;20476;-76
2023/06/15 04:19:22;;;;;;;20.58;10.02;;;23.90;65.70;;;;;;7386349;19;20028;-77
2023/06/15 04:21:55;;;;;;;22.17;10.77;;;23.80;66.60;;;;;;7388491;19;20034;-76
2023/06/15 04:24:23;;;;;;;20.10;10.55;;;23.80;65.90;;;;;;7389063;19;20011;-76
2023/06/15 04:26:52;;;;;;;15.23;10.43;;;23.80;66.10;;;;;;7388604;19;20009;-76
2023/06/15 04:29:22;;;;;;;18.27;11.65;;;23.80;66.10;;;;;;7407495;19;20032;-76
2023/06/15 04:31:54;;;;;;;16.65;11.45;;;23.70;66.20;;;;;;7384283;19;20007;-76
2023/06/15 04:34:26;;;;;;;19.52;11.68;;;23.60;66.50;;;;;;7386159;19;20058;-76
2023/06/15 04:36:57;;;;;;;18.45;11.02;;;23.50;66.70;;;;;;7387152;19;20293;-76
2023/06/15 04:39:27;;;;;;;20.15;11.15;;;23.50;66.90;;;;;;7387167;19;20003;-76
2023/06/15 04:41:57;;;;;;;17.90;10.82;;;23.50;67.10;;;;;;7388529;19;20015;-76
2023/06/15 04:44:26;;;;;;;19.85;10.88;;;23.50;67.20;;;;;;7408907;19;20010;-76
2023/06/15 04:46:58;;;;;;;18.40;10.75;;;23.50;67.50;;;;;;7384535;19;20270;-76
2023/06/15 04:49:26;;;;;;;22.08;10.75;;;23.50;67.40;;;;;;7384846;19;20010;-76
2023/06/15 04:51:58;;;;;;;27.88;10.68;;;23.60;67.10;;;;;;7386254;19;20002;-76
2023/06/15 04:54:26;;;;;;;;;;;23.70;67.20;;;;;;7385883;19;20016;-76
2023/06/15 04:56:57;;;;;;;19.92;11.02;;;23.80;67.20;;;;;;7382955;19;20223;-76
2023/06/15 04:59:26;;;;;;;16.92;9.82;;;23.80;67.10;;;;;;7405471;19;20356;-76
2023/06/15 05:01:55;;;;;;;15.23;11.05;;;23.80;67.20;;;;;;7400444;19;20003;-76
2023/06/15 05:04:24;;;;;;;22.95;11.52;;;23.80;67.10;;;;;;7398142;19;20010;-76
2023/06/15 05:06:55;;;;;;;19.77;10.63;;;23.80;66.70;;;;;;7386183;19;20058;-76
2023/06/15 05:09:26;;;;;;;24.93;11.07;;;23.80;67.20;;;;;;7384530;19;20385;-76
2023/06/15 05:11:55;;;;;;;25.27;10.90;;;23.70;67.40;;;;;;7384570;19;20570;-77
2023/06/15 05:14:26;;;;;;;24.02;11.00;;;23.80;67.50;;;;;;7406703;19;20002;-76
2023/06/15 05:16:54;;;;;;;22.35;11.27;;;23.80;67.50;;;;;;7383408;19;20003;-76
2023/06/15 05:19:24;;;;;;;17.73;10.52;;;23.80;67.60;;;;;;7383214;19;20002;-76
2023/06/15 05:21:53;;;;;;;17.08;10.68;;;23.90;67.70;;;;;;7384177;19;20006;-76
2023/06/15 05:24:21;;;;;;;20.48;10.48;;;23.90;67.60;;;;;;7385064;19;20042;-76
2023/06/15 05:26:53;;;;;;;14.98;10.45;;;24.00;67.50;;;;;;7385210;19;20027;-76
2023/06/15 05:29:21;;;;;;;;;;;24.00;67.40;;;;;;7413767;19;20236;-77
2023/06/15 05:31:50;;;;;;;33.08;11.60;;;24.10;67.40;;;;;;7404193;19;19907;-77
2023/06/15 05:34:19;;;;;;;18.55;10.48;;;24.10;67.20;;;;;;7407295;19;19999;-76
2023/06/15 05:36:47;;;;;;;23.33;10.80;;;24.10;67.10;;;;;;7391785;19;20003;-76
2023/06/15 05:39:16;;;;;;;21.30;10.70;;;24.10;67.30;;;;;;7387533;19;20007;-76
2023/06/15 05:41:45;;;;;;;18.38;10.00;;;24.20;67.50;;;;;;7384989;19;20031;-76
2023/06/15 05:44:16;;;;;;;19.83;10.77;;;24.20;67.50;;;;;;7406536;19;20027;-75
2023/06/15 05:46:45;;;;;;;;;;;24.30;67.90;;;;;;7385336;19;20306;-75
2023/06/15 05:49:14;;;;;;;22.45;10.95;;;24.40;68.00;;;;;;7385769;19;19914;-75
2023/06/15 05:51:43;;;;;;;18.60;11.13;;;24.40;68.00;;;;;;7384963;19;20388;-75
2023/06/15 05:54:12;;;;;;;24.13;11.13;;;24.40;68.00;;;;;;7383294;19;20006;-76
2023/06/15 05:56:40;;;;;;;23.40;10.85;;;24.40;67.90;;;;;;7387425;19;20011;-75
2023/06/15 05:59:09;;;;;;;24.25;11.60;;;24.50;67.80;;;;;;7405273;19;20039;-76
2023/06/15 06:01:41;;;;;;;17.45;10.73;;;24.60;67.50;;;;;;7381768;19;20010;-76
2023/06/15 06:04:10;;;;;;;18.42;10.93;;;24.60;67.50;;;;;;7383104;19;20006;-75
2023/06/15 06:06:38;;;;;;;19.88;10.90;;;24.60;67.60;;;;;;7382154;19;20226;-76
2023/06/15 06:09:09;;;;;;;17.77;10.98;;;24.70;67.70;;;;;;7383360;19;20021;-75
2023/06/15 06:11:37;;;;;;;20.83;10.48;;;24.70;67.70;;;;;;7404683;19;20055;-75
2023/06/15 06:14:06;;;;;;;22.40;11.50;;;24.90;67.60;;;;;;7381107;19;20269;-76
2023/06/15 06:16:35;;;;;;;21.60;11.45;;;24.90;67.20;;;;;;7382190;19;20386;-75
2023/06/15 06:19:06;;;;;;;24.77;10.88;;;25.00;67.20;;;;;;7382678;19;20003;-75
2023/06/15 06:21:35;;;;;;;;;;;25.10;67.70;;;;;;7383074;19;20267;-76
2023/06/15 06:24:03;;;;;;;18.75;10.45;;;25.20;66.80;;;;;;7380627;19;19915;-76
2023/06/15 06:26:32;;;;;;;20.23;10.95;;;25.30;66.60;;;;;;7404568;19;20006;-76
2023/06/15 06:29:01;;;;;;;18.48;10.23;;;25.30;66.70;;;;;;7381466;19;20026;-76
2023/06/15 06:31:30;;;;;;;19.85;10.75;;;25.40;67.00;;;;;;7379610;19;20028;-76
2023/06/15 06:33:59;;;;;;;15.63;9.48;;;25.40;66.80;;;;;;7382363;19;20010;-76
2023/06/15 06:36:31;;;;;;;19.92;10.27;;;25.60;66.70;;;;;;7385563;19;20394;-76
2023/06/15 06:39:00;;;;;;;16.88;10.50;;;25.60;66.60;;;;;;7384871;19;20043;-76
2023/06/15 06:41:28;;;;;;;25.13;10.27;;;25.70;66.90;;;;;;7404124;19;20006;-76
2023/06/15 06:43:57;;;;;;;21.70;9.90;;;25.80;66.70;;;;;;7381841;19;20003;-76
2023/06/15 06:46:26;;;;;;;25.10;9.90;;;25.80;66.30;;;;;;7382476;19;20002;-77
2023/06/15 06:48:54;;;;;;;19.10;10.00;;;25.90;66.10;;;;;;7383780;19;20006;-76
2023/06/15 06:51:23;;;;;;;26.17;9.40;;;26.00;65.90;;;;;;7384676;19;20080;-76
2023/06/15 06:53:55;;;;;;;17.38;8.68;;;26.00;65.40;;;;;;7383297;19;20019;-76
2023/06/15 06:56:23;;;;;;;;;;;26.00;63.90;;;;;;7406328;19;20011;-76
2023/06/15 06:58:52;;;;;;;15.60;8.95;;;26.10;64.20;;;;;;7381308;19;19907;-76
2023/06/15 07:01:24;;;;;;;17.05;9.02;;;26.20;63.50;;;;;;7380309;19;20248;-76
2023/06/15 07:03:52;;;;;;;22.50;8.90;;;26.20;63.50;;;;;;7379918;19;20006;-75
2023/06/15 07:06:21;;;;;;;31.10;9.38;;;26.30;63.70;;;;;;7381388;19;20010;-76
2023/06/15 07:08:53;;;;;;;29.83;8.50;;;26.30;63.70;;;;;;7381388;19;20368;-77
2023/06/15 07:11:26;;;;;;;18.48;8.20;;;26.30;63.00;;;;;;7408167;19;20014;-75
2023/06/15 07:13:55;;;;;;;23.75;7.75;;;26.30;61.40;;;;;;7379470;19;20010;-76
2023/06/15 07:16:23;;;;;;;15.63;7.95;;;26.40;60.80;;;;;;7398122;19;20274;-77
2023/06/15 07:18:52;;;;;;;14.02;7.50;;;26.40;61.00;;;;;;7390330;19;20014;-77
2023/06/15 07:21:21;;;;;;;15.85;7.22;;;26.40;61.10;;;;;;7382537;19;20007;-76
2023/06/15 07:23:50;;;;;;;15.70;8.55;;;26.40;61.10;;;;;;7380373;19;20036;-74
2023/06/15 07:26:25;;;;;;;15.82;7.50;;;26.40;61.10;;;;;;7401671;19;20376;-78
2023/06/15 07:28:53;;;;;;;17.15;7.32;;;26.40;61.20;;;;;;7385402;19;20011;-76
2023/06/15 07:31:22;;;;;;;19.88;8.02;;;26.40;60.20;;;;;;7379471;19;20418;-75
2023/06/15 07:33:53;;;;;;;19.95;8.38;;;26.40;59.90;;;;;;7379911;19;20009;-77
2023/06/15 07:36:22;;;;;;;;;;;26.40;59.90;;;;;;7384316;19;20003;-76
2023/06/15 07:38:52;;;;;;;23.98;9.13;;;26.60;59.90;;;;;;7380669;19;19910;-76
2023/06/15 07:41:23;;;;;;;16.93;8.23;;;26.60;59.80;;;;;;7405351;19;20074;-76
2023/06/15 07:43:52;;;;;;;;;;;26.70;59.80;;;;;;7390451;19;20232;-77
2023/06/15 07:46:20;;;;;;;15.48;6.78;;;26.80;59.60;;;;;;7390125;19;20152;-75
2023/06/15 07:48:51;;;;;;;25.38;7.13;;;26.80;59.20;;;;;;7389249;19;20007;-77
2023/06/15 07:51:20;;;;;;;16.67;6.43;;;26.80;59.30;;;;;;7389126;19;20006;-78
2023/06/15 07:53:49;;;;;;;23.48;6.97;;;26.80;59.20;;;;;;7386187;19;20010;-78
2023/06/15 07:56:18;;;;;;;21.63;6.63;;;26.90;59.10;;;;;;7409478;19;20007;-77
2023/06/15 07:58:49;;;;;;;32.63;6.60;;;26.90;58.90;;;;;;7389007;19;20320;-75
2023/06/15 08:01:18;;;;;;;12.20;6.40;;;26.90;58.80;;;;;;7389215;19;20031;-75
2023/06/15 08:03:46;;;;;;;18.90;6.80;;;27.00;58.00;;;;;;7389365;19;20034;-75
2023/06/15 08:06:15;;;;;;;20.23;7.30;;;27.00;57.60;;;;;;7390210;19;20019;-77
2023/06/15 08:08:44;;;;;;;15.98;6.72;;;27.00;57.30;;;;;;7384545;19;20007;-76
2023/06/15 08:11:16;;;;;;;16.10;6.78;;;27.00;57.30;;;;;;7408098;19;20026;-78
2023/06/15 08:13:45;;;;;;;16.42;7.30;;;27.00;56.90;;;;;;7386670;19;20002;-77
2023/06/15 08:16:16;;;;;;;12.30;6.47;;;27.00;56.80;;;;;;7387141;19;20002;-77
2023/06/15 08:18:45;;;;;;;24.17;6.68;;;27.00;57.50;;;;;;7386462;19;20391;-76
2023/06/15 08:21:14;;;;;;;14.73;7.03;;;27.00;57.40;;;;;;7387650;19;20068;-75
2023/06/15 08:23:42;;;;;;;26.23;6.70;;;27.00;56.20;;;;;;7385924;19;19999;-74
2023/06/15 08:26:11;;;;;;;21.08;6.70;;;26.90;56.00;;;;;;7406855;19;20010;-75
2023/06/15 08:28:43;;;;;;;20.70;6.80;;;26.90;56.20;;;;;;7386103;19;20011;-78
2023/06/15 08:31:11;;;;;;;19.88;6.40;;;26.90;56.50;;;;;;7385020;19;20023;-75
2023/06/15 08:33:43;;;;;;;16.02;6.68;;;27.00;56.00;;;;;;7385911;19;20002;-74
2023/06/15 08:36:12;;;;;;;20.10;6.97;;;26.80;55.50;;;;;;7386349;19;20074;-73
2023/06/15 08:38:40;;;;;;;18.33;6.55;;;26.90;56.20;;;;;;7399445;19;20083;-77
2023/06/15 08:41:14;;;;;;;14.15;5.60;;;26.90;55.90;;;;;;7407952;19;20003;-77
2023/06/15 08:43:45;;;;;;;17.70;6.22;;;26.90;55.40;;;;;;7385749;19;20027;-76
2023/06/15 08:46:14;;;;;;;19.17;6.35;;;27.00;55.90;;;;;;7384361;19;20384;-75
2023/06/15 08:48:48;;;;;;;19.77;5.97;;;27.10;55.50;;;;;;7384350;19;20369;-75
2023/06/15 08:51:16;;;;;;;29.17;6.25;;;27.10;55.80;;;;;;7387935;19;20027;-74
2023/06/15 08:53:47;;;;;;;27.35;6.10;;;27.20;55.70;;;;;;7383567;19;20070;-74
2023/06/15 08:56:16;;;;;;;21.83;5.70;;;27.30;55.70;;;;;;7407486;19;20538;-75
2023/06/15 08:58:49;;;;;;;14.95;5.75;;;27.30;55.70;;;;;;7384494;19;20003;-75
2023/06/15 09:01:22;;;;;;;13.57;4.90;;;27.10;53.10;;;;;;7388988;19;20066;-77
2023/06/15 09:03:55;;;;;;;9.55;5.10;;;27.20;53.60;;;;;;7394357;19;20010;-77
2023/06/15 09:06:25;;;;;;;11.52;4.82;;;27.20;54.00;;;;;;7401481;19;20003;-75
2023/06/15 09:08:54;;;;;;;11.40;5.67;;;27.30;54.20;;;;;;7402463;19;20238;-76
2023/06/15 09:11:26;;;;;;;22.00;5.43;;;27.30;54.30;;;;;;7409958;19;20010;-76
2023/06/15 09:13:57;;;;;;;7.18;4.93;;;27.40;54.20;;;;;;7383569;19;20062;-76
2023/06/15 09:16:32;;;;;;;21.63;4.85;;;27.40;53.70;;;;;;7385071;19;20007;-76
2023/06/15 09:19:04;;;;;;;13.18;4.00;;;27.40;53.00;;;;;;7384420;19;20099;-75
2023/06/15 09:21:33;;;;;;;11.95;3.70;;;27.40;52.30;;;;;;7384352;19;20434;-74
2023/06/15 09:24:08;;;;;;;7.80;4.32;;;27.50;51.90;;;;;;7382979;19;20024;-77
2023/06/15 09:26:39;;;;;;;20.05;4.38;;;27.50;51.80;;;;;;7408420;19;20007;-77
2023/06/15 09:29:11;;;;;;;6.65;3.78;;;27.60;51.20;;;;;;7403607;19;20007;-75
2023/06/15 09:31:41;;;;;;;11.35;4.30;;;27.60;51.40;;;;;;7389562;19;20006;-78
2023/06/15 09:34:13;;;;;;;9.27;4.00;;;27.70;51.00;;;;;;7386674;19;19999;-76
2023/06/15 09:36:48;;;;;;;10.73;4.18;;;27.70;50.60;;;;;;7382944;19;20007;-77
2023/06/15 09:39:18;;;;;;;7.03;4.25;;;27.70;49.80;;;;;;7385145;19;20450;-77
2023/06/15 09:41:56;;;;;;;13.55;4.05;;;27.80;49.90;;;;;;7385393;19;20015;-75
2023/06/15 09:44:28;;;;;;;9.63;4.90;;;27.80;49.60;;;;;;7405989;19;20031;-77
2023/06/15 09:46:59;;;;;;;13.68;4.60;;;27.80;49.90;;;;;;7384123;19;20014;-77
2023/06/15 09:49:31;;;;;;;9.25;4.10;;;27.80;50.50;;;;;;7383792;19;20011;-75
2023/06/15 09:52:01;;;;;;;10.88;4.40;;;27.80;50.50;;;;;;7384220;19;20006;-76
2023/06/15 09:54:32;;;;;;;10.50;4.55;;;27.90;50.50;;;;;;7383220;19;20023;-75
2023/06/15 09:57:02;;;;;;;10.60;4.70;;;28.00;49.90;;;;;;7385863;19;20000;-76
2023/06/15 09:59:31;;;;;;;22.75;4.80;;;28.00;49.50;;;;;;7405675;19;20010;-76
2023/06/15 10:02:02;;;;;;;15.20;4.63;;;27.90;48.40;;;;;;7384080;19;20354;-76
2023/06/15 10:04:39;;;;;;;;;;;27.90;48.50;;;;;;7382918;19;20003;-76
2023/06/15 10:07:10;;;;;;;13.70;4.65;;;28.10;48.10;;;;;;7382086;19;19903;-76
2023/06/15 10:09:47;;;;;;;13.20;4.90;;;28.10;47.90;;;;;;7382610;19;20003;-77
2023/06/15 10:12:19;;;;;;;15.30;5.47;;;28.10;48.50;;;;;;7383593;19;20308;-76
2023/06/15 10:14:52;;;;;;;21.60;7.25;;;28.10;48.80;;;;;;7383364;19;20035;-75
2023/06/15 10:17:32;;;;;;;19.77;6.13;;;28.20;48.80;;;;;;7404360;19;20010;-75
2023/06/15 10:20:11;;;;;;;6.72;4.63;;;28.20;49.00;;;;;;7381491;19;20271;-75
2023/06/15 10:22:48;;;;;;;12.98;5.03;;;28.30;49.30;;;;;;7381267;19;20020;-75
2023/06/15 10:25:20;;;;;;;19.80;5.03;;;28.30;48.80;;;;;;7382376;19;20005;-76
2023/06/15 10:27:50;;;;;;;12.68;4.53;;;28.30;49.00;;;;;;7381207;19;20002;-75
2023/06/15 10:30:28;;;;;;;8.75;5.28;;;28.30;49.50;;;;;;7383708;19;20023;-76
2023/06/15 10:33:04;;;;;;;13.30;5.00;;;28.10;48.90;;;;;;7380562;19;20010;-76
2023/06/15 10:35:40;;;;;;;13.10;5.68;;;28.20;49.00;;;;;;7402246;19;20381;-76
2023/06/15 10:38:27;;;;;;;16.63;4.95;;;28.20;48.30;;;;;;7382033;19;20015;-77
2023/06/15 10:40:56;;;;;;;12.35;5.93;;;28.10;48.80;;;;;;7381610;19;20358;-76
2023/06/15 10:43:28;;;;;;;7.60;5.38;;;28.10;48.10;;;;;;7384888;19;20003;-79
2023/06/15 10:45:57;;;;;;;10.82;5.60;;;28.30;48.30;;;;;;7383138;19;20366;-78
2023/06/15 10:48:29;;;;;;;10.10;5.50;;;28.30;48.20;;;;;;7382636;19;20362;-78
2023/06/15 10:51:10;;;;;;;13.02;5.68;;;28.20;48.60;;;;;;7382632;19;20010;-77
2023/06/15 10:53:45;;;;;;;10.02;5.65;;;28.40;49.20;;;;;;7409083;19;20003;-79
2023/06/15 10:56:19;;;;;;;12.98;5.72;;;28.40;48.30;;;;;;7384286;19;20236;-75
2023/06/15 10:58:57;;;;;;;16.55;5.93;;;28.60;48.70;;;;;;7382252;19;20007;-76
2023/06/15 11:01:27;;;;;;;16.75;5.80;;;28.50;48.90;;;;;;7382083;19;20252;-75
2023/06/15 11:03:57;;;;;;;15.98;5.30;;;28.60;49.00;;;;;;7382820;19;20362;-75
2023/06/15 11:06:35;;;;;;;10.40;5.60;;;28.70;49.40;;;;;;7382483;19;20020;-74
2023/06/15 11:09:09;;;;;;;10.77;5.80;;;28.80;48.80;;;;;;7381368;19;20006;-78
2023/06/15 11:11:40;;;;;;;10.30;5.80;;;28.80;48.30;;;;;;7407920;19;20009;-82
2023/06/15 11:14:22;;;;;;;11.38;5.93;;;28.90;48.20;;;;;;7381944;19;20007;-73
2023/06/15 11:17:04;;;;;;;10.57;5.97;;;29.00;48.60;;;;;;7382793;19;20016;-75
2023/06/15 11:19:35;;;;;;;11.70;6.32;;;28.90;47.60;;;;;;7392359;19;20014;-75
2023/06/15 11:22:25;;;;;;;11.85;6.38;;;28.90;47.30;;;;;;7391912;19;20003;-77
2023/06/15 11:25:03;;;;;;;13.20;6.18;;;28.90;46.90;;;;;;7388987;19;20006;-77
2023/06/15 11:27:31;;;;;;;11.48;6.32;;;28.90;47.20;;;;;;7388743;19;20011;-76
2023/06/15 11:30:01;;;;;;;9.77;5.63;;;28.90;47.30;;;;;;7390997;19;19995;-75
2023/06/15 11:32:33;;;;;;;16.10;5.78;;;28.80;47.60;;;;;;7413509;19;20252;-78
2023/06/15 11:35:17;;;;;;;11.10;5.63;;;28.90;48.40;;;;;;7387030;19;20409;-84
2023/06/15 11:37:50;;;;;;;8.93;5.70;;;28.90;48.70;;;;;;7394292;19;20002;-77
2023/06/15 11:40:19;;;;;;;14.38;5.90;;;29.00;48.80;;;;;;7398536;19;20006;-77
2023/06/15 11:42:48;;;;;;;8.90;6.13;;;29.10;47.90;;;;;;7389353;19;20095;-77
2023/06/15 11:45:23;;;;;;;18.05;6.32;;;29.10;47.70;;;;;;7389233;19;19998;-77
2023/06/15 11:47:52;;;;;;;14.13;6.18;;;29.20;46.70;;;;;;7389337;19;20010;-76
2023/06/15 11:50:23;;;;;;;14.75;6.70;;;29.10;46.60;;;;;;7410388;19;20035;-76
2023/06/15 11:52:57;;;;;;;14.35;6.72;;;29.10;46.80;;;;;;7386527;19;20006;-76
2023/06/15 11:55:25;;;;;;;11.60;6.43;;;29.00;46.60;;;;;;7384923;19;20019;-75
2023/06/15 11:57:54;;;;;;;12.05;6.70;;;28.90;46.50;;;;;;7385746;19;20242;-74
2023/06/15 12:00:24;;;;;;;12.82;6.38;;;29.10;46.90;;;;;;7385188;19;20007;-74
2023/06/15 12:02:53;;;;;;;10.60;6.47;;;29.10;46.40;;;;;;7387212;19;20062;-77
2023/06/15 12:05:22;;;;;;;10.27;5.93;;;29.10;46.90;;;;;;7409103;19;20394;-76
2023/06/15 12:07:51;;;;;;;9.57;6.32;;;29.10;47.20;;;;;;7388323;19;20007;-75
2023/06/15 12:10:23;;;;;;;12.93;6.68;;;29.20;47.00;;;;;;7389352;19;20012;-75
2023/06/15 12:12:52;;;;;;;9.35;6.43;;;29.30;47.60;;;;;;7388399;19;20002;-76
2023/06/15 12:15:25;;;;;;;14.27;5.85;;;29.40;47.60;;;;;;7389323;19;20006;-78
2023/06/15 12:17:56;;;;;;;8.85;6.20;;;29.50;47.30;;;;;;7391663;19;20006;-77
2023/06/15 12:20:30;;;;;;;12.13;6.28;;;29.60;47.00;;;;;;7414152;19;20003;-78
2023/06/15 12:23:01;;;;;;;16.20;5.93;;;29.70;46.90;;;;;;7394150;19;20006;-78
2023/06/15 12:25:48;;;;;;;11.70;5.90;;;29.80;45.90;;;;;;7393051;19;20292;-78
2023/06/15 12:28:19;;;;;;;12.38;6.40;;;29.80;46.50;;;;;;7406816;19;20007;-77
2023/06/15 12:30:51;;;;;;;11.18;6.13;;;29.80;46.80;;;;;;7400936;19;20011;-79
2023/06/15 12:33:34;;;;;;;17.98;6.03;;;29.80;47.40;;;;;;7390713;19;19998;-81
2023/06/15 12:36:05;;;;;;;12.00;6.43;;;30.00;46.30;;;;;;7392876;19;20011;-80
2023/06/15 12:38:37;;;;;;;9.32;5.82;;;30.00;46.10;;;;;;7413346;19;20003;-82
2023/06/15 12:41:14;;;;;;;9.52;5.60;;;30.10;47.90;;;;;;7390044;19;20003;-76
2023/06/15 12:43:45;;;;;;;11.07;5.57;;;30.10;47.60;;;;;;7386782;19;20002;-76
2023/06/15 12:46:13;;;;;;;12.80;5.75;;;30.10;46.80;;;;;;7385786;19;20369;-75
2023/06/15 12:48:42;;;;;;;16.02;6.78;;;30.20;47.00;;;;;;7385774;19;20007;-75
2023/06/15 12:51:12;;;;;;;14.35;6.20;;;30.20;46.40;;;;;;7385892;19;20292;-76
2023/06/15 12:53:40;;;;;;;14.68;6.15;;;30.20;45.80;;;;;;7391536;19;20003;-75
2023/06/15 12:56:12;;;;;;;14.45;6.82;;;30.30;45.50;;;;;;7405392;19;20006;-78
2023/06/15 12:58:40;;;;;;;7.60;5.78;;;30.20;45.90;;;;;;7387449;19;20092;-77